Heisson, Washington
Current Conditions -  °F | °C
As of 5:53 AM on Thursday 23 Oct 2014 (Local Time) from KVUO Reporting Station
Light Rain Light Rain  
Wind Chill: 54°   Ceiling: 5500
Heat Index: 54°   Visibility: 10mi
Dew Point: 52°   Wind: 8mph
Humidity: 93%   Direction: 140°SE
Pressure: 29.76"   Gusts: NA
Location:  45.82°N, 122.49°W
Report Text: KVUO 231253Z AUTO 14007KT 10SM -RA SCT010 BKN055 OVC075 12/11 A2976 RMK AO2 SLP078 P0006 T01220111
Loading
Personal Weather Stations






























Interactive Weather Map
Tropical Storm Tracking
New forecast layout! Learn more

10-Day Weather Forecast

Advertisements
Track Severe Weather on mobile